Time;durP1;ratioP1;P1;durP2;ratioP2;P2;SDS_P1;SDS_P2;PMS_P1;PMS_P2;Temp;Humidity;BMP_temperature;BMP_pressure;BME280_temperature;BME280_humidity;BME280_pressure;Samples;Min_cycle;Max_cycle;Signal;HPM_P1;HPM_P2
2021/06/17 00:00:12;;;;;;;14.20;10.45;;;20.70;84.80;;;;;;5035115;28;20466;-84
2021/06/17 00:02:38;;;;;;;14.18;10.45;;;20.70;85.30;;;;;;5036472;28;20483;-83
2021/06/17 00:05:10;;;;;;;12.05;10.32;;;20.70;85.70;;;;;;5045187;28;20325;-84
2021/06/17 00:07:36;;;;;;;16.27;10.63;;;20.60;85.40;;;;;;5049987;28;20091;-84
2021/06/17 00:10:04;;;;;;;12.38;9.88;;;20.60;85.40;;;;;;5047271;28;20041;-83
2021/06/17 00:12:30;;;;;;;14.30;10.30;;;20.50;85.50;;;;;;5053073;28;20041;-83
2021/06/17 00:14:56;;;;;;;13.75;10.45;;;20.50;85.70;;;;;;5019487;28;20048;-83
2021/06/17 00:17:22;;;;;;;13.65;10.45;;;20.50;85.70;;;;;;5050957;28;20095;-84
2021/06/17 00:19:47;;;;;;;13.90;11.18;;;20.50;85.90;;;;;;5005663;28;20040;-83
2021/06/17 00:22:13;;;;;;;16.05;10.60;;;20.50;86.00;;;;;;4988182;28;20048;-84
2021/06/17 00:24:39;;;;;;;12.65;11.00;;;20.50;86.20;;;;;;5047890;28;20304;-83
2021/06/17 00:27:05;;;;;;;19.73;11.23;;;20.40;86.40;;;;;;5062244;28;20033;-83
2021/06/17 00:29:31;;;;;;;18.10;11.90;;;20.40;86.30;;;;;;5019993;28;20033;-82
2021/06/17 00:31:57;;;;;;;15.63;12.23;;;20.40;86.70;;;;;;5054034;28;20045;-84
2021/06/17 00:34:23;;;;;;;16.55;12.93;;;20.40;87.10;;;;;;5053030;28;20053;-83
2021/06/17 00:36:49;;;;;;;16.95;12.40;;;20.30;87.40;;;;;;5009851;28;20116;-84
2021/06/17 00:39:15;;;;;;;16.73;13.48;;;20.30;87.50;;;;;;5032802;28;20168;-83
2021/06/17 00:41:42;;;;;;;17.88;13.60;;;20.30;87.80;;;;;;5013341;28;20589;-83
2021/06/17 00:44:09;;;;;;;16.52;13.23;;;20.30;87.70;;;;;;5030180;28;20056;-83
2021/06/17 00:46:35;;;;;;;18.67;13.57;;;20.30;87.90;;;;;;5035526;28;20029;-84
2021/06/17 00:49:03;;;;;;;19.30;12.88;;;20.20;88.00;;;;;;5050279;28;20490;-83
2021/06/17 00:51:29;;;;;;;19.30;13.07;;;20.20;88.20;;;;;;5035420;28;20490;-83
2021/06/17 00:53:55;;;;;;;16.38;14.05;;;20.20;88.40;;;;;;5017043;28;20098;-83
2021/06/17 00:56:22;;;;;;;18.88;13.27;;;20.10;88.50;;;;;;5029463;28;20044;-83
2021/06/17 00:58:48;;;;;;;17.50;13.90;;;20.10;88.50;;;;;;5019053;28;20134;-82
2021/06/17 01:01:14;;;;;;;20.23;13.70;;;20.10;89.40;;;;;;5017162;28;20045;-82
2021/06/17 01:03:40;;;;;;;19.90;14.45;;;20.10;88.90;;;;;;5031295;28;20054;-83
2021/06/17 01:06:06;;;;;;;19.85;14.07;;;20.10;89.00;;;;;;5016674;28;20129;-82
2021/06/17 01:08:44;;;;;;;21.35;15.15;;;20.00;89.30;;;;;;5050970;28;20036;-84
2021/06/17 01:11:34;;;;;;;17.95;15.07;;;20.00;89.30;;;;;;5030130;28;20560;-82
2021/06/17 01:14:09;;;;;;;16.85;13.68;;;20.00;89.30;;;;;;5034425;28;20041;-83
2021/06/17 01:16:50;;;;;;;21.17;15.65;;;20.00;89.20;;;;;;5030012;28;20075;-82
2021/06/17 01:19:31;;;;;;;18.63;15.70;;;20.00;89.40;;;;;;5035749;28;20476;-83
2021/06/17 01:22:15;;;;;;;22.02;16.83;;;20.00;89.40;;;;;;5036422;28;20264;-84
2021/06/17 01:25:10;;;;;;;20.70;17.70;;;19.90;89.70;;;;;;5036204;28;20041;-83
2021/06/17 01:27:57;;;;;;;24.38;17.42;;;20.00;90.00;;;;;;5029212;28;20131;-82
2021/06/17 01:30:25;;;;;;;23.88;17.17;;;19.90;90.10;;;;;;5028710;28;20480;-83
2021/06/17 01:32:56;;;;;;;20.80;17.30;;;19.90;90.10;;;;;;5036269;28;20033;-83
2021/06/17 01:35:25;;;;;;;20.67;16.67;;;19.90;90.30;;;;;;5034003;28;20378;-83
2021/06/17 01:37:56;;;;;;;23.67;17.23;;;19.90;90.30;;;;;;5054241;28;20280;-83
2021/06/17 01:40:21;;;;;;;22.02;17.65;;;19.90;90.20;;;;;;5039231;28;20029;-83
2021/06/17 01:42:48;;;;;;;21.65;18.02;;;19.80;90.30;;;;;;5052369;28;20415;-83
2021/06/17 01:45:15;;;;;;;23.88;18.13;;;19.80;90.30;;;;;;5035350;28;20206;-83
2021/06/17 01:47:41;;;;;;;20.80;18.10;;;19.80;90.40;;;;;;5065859;28;20538;-83
2021/06/17 01:50:12;;;;;;;21.42;17.88;;;19.80;90.40;;;;;;5023819;28;20402;-83
2021/06/17 01:52:38;;;;;;;21.48;18.42;;;19.80;90.50;;;;;;5049143;28;20049;-83
2021/06/17 01:55:06;;;;;;;23.73;19.48;;;19.70;90.60;;;;;;5051710;28;20037;-83
2021/06/17 01:57:33;;;;;;;24.08;19.33;;;19.70;90.70;;;;;;5030630;28;20092;-83
2021/06/17 02:00:00;;;;;;;21.88;19.55;;;19.70;90.80;;;;;;5038714;28;20079;-83
2021/06/17 02:02:29;;;;;;;30.88;19.67;;;19.70;90.80;;;;;;5054390;28;20408;-83
2021/06/17 02:04:55;;;;;;;24.42;20.05;;;19.70;90.80;;;;;;5036376;28;20349;-83
2021/06/17 02:07:24;;;;;;;25.10;19.38;;;19.70;90.80;;;;;;5070206;28;20048;-83
2021/06/17 02:09:53;;;;;;;23.30;19.67;;;19.70;90.90;;;;;;5034725;28;20049;-83
2021/06/17 02:12:19;;;;;;;24.08;19.48;;;19.70;90.90;;;;;;5067969;28;20037;-82
2021/06/17 02:14:48;;;;;;;22.58;19.38;;;19.70;91.00;;;;;;5032553;28;20052;-82
2021/06/17 02:17:19;;;;;;;23.42;20.90;;;19.70;91.00;;;;;;5033519;28;20801;-83
2021/06/17 02:19:48;;;;;;;23.30;19.88;;;19.60;91.10;;;;;;5038863;28;20044;-83
2021/06/17 02:22:15;;;;;;;25.38;20.63;;;19.60;91.10;;;;;;5044691;28;20041;-83
2021/06/17 02:24:45;;;;;;;26.50;20.33;;;19.60;91.10;;;;;;5044450;28;20033;-83
2021/06/17 02:27:15;;;;;;;25.15;20.08;;;19.60;91.10;;;;;;5036210;28;20041;-83
2021/06/17 02:29:44;;;;;;;26.48;21.08;;;19.60;91.10;;;;;;5035614;28;20037;-83
2021/06/17 02:32:22;;;;;;;24.10;21.08;;;19.60;91.20;;;;;;5036857;28;20311;-82
2021/06/17 02:34:50;;;;;;;20.80;18.55;;;19.60;91.20;;;;;;5035743;28;20507;-82
2021/06/17 02:37:18;;;;;;;24.40;21.65;;;19.60;91.20;;;;;;5035557;28;20033;-83
2021/06/17 02:39:46;;;;;;;25.08;22.00;;;19.60;91.50;;;;;;5064748;28;20400;-83
2021/06/17 02:42:16;;;;;;;25.58;21.58;;;19.60;91.30;;;;;;5032823;28;20079;-83
2021/06/17 02:44:44;;;;;;;24.33;21.92;;;19.60;91.30;;;;;;5072318;28;20041;-82
2021/06/17 02:47:11;;;;;;;26.15;23.30;;;19.60;91.40;;;;;;5055851;28;20118;-83
2021/06/17 02:49:39;;;;;;;24.52;21.65;;;19.60;91.60;;;;;;5021361;28;20033;-83
2021/06/17 02:52:05;;;;;;;21.80;19.52;;;19.60;91.60;;;;;;5030294;28;20050;-82
2021/06/17 02:54:31;;;;;;;23.98;21.40;;;19.60;91.50;;;;;;5011674;28;20098;-82
2021/06/17 02:57:03;;;;;;;29.00;22.50;;;19.60;91.60;;;;;;5045239;28;20041;-82
2021/06/17 02:59:31;;;;;;;25.63;20.95;;;19.60;91.70;;;;;;5034463;28;20237;-83
2021/06/17 03:02:03;;;;;;;27.85;21.42;;;19.50;91.60;;;;;;5033867;28;20041;-81
2021/06/17 03:04:44;;;;;;;23.45;20.98;;;19.50;91.70;;;;;;5031352;28;20095;-83
2021/06/17 03:07:18;;;;;;;23.30;20.90;;;19.50;91.60;;;;;;5037377;28;20045;-82
2021/06/17 03:09:46;;;;;;;23.02;20.27;;;19.50;91.50;;;;;;5061880;28;20044;-82
2021/06/17 03:12:16;;;;;;;26.17;22.35;;;19.50;91.60;;;;;;5031790;28;20131;-82
2021/06/17 03:14:45;;;;;;;23.10;19.45;;;19.50;91.60;;;;;;5036994;28;20483;-82
2021/06/17 03:17:13;;;;;;;23.63;21.05;;;19.50;91.60;;;;;;5030102;28;20494;-81
2021/06/17 03:19:41;;;;;;;23.45;20.95;;;19.50;91.60;;;;;;5032614;28;20176;-82
2021/06/17 03:22:11;;;;;;;28.85;21.00;;;19.50;91.80;;;;;;5034218;28;20040;-82
2021/06/17 03:24:39;;;;;;;25.83;22.95;;;19.50;91.80;;;;;;5028448;28;20033;-82
2021/06/17 03:27:07;;;;;;;27.92;22.08;;;19.50;91.90;;;;;;5034293;28;20101;-82
2021/06/17 03:29:41;;;;;;;25.55;21.50;;;19.50;92.00;;;;;;5046637;28;20095;-82
2021/06/17 03:32:10;;;;;;;23.65;19.55;;;19.50;92.00;;;;;;5037497;28;20422;-81
2021/06/17 03:34:39;;;;;;;25.35;22.10;;;19.50;92.00;;;;;;5036325;28;20487;-82
2021/06/17 03:37:07;;;;;;;23.70;20.33;;;19.50;92.10;;;;;;5035826;28;20415;-82
2021/06/17 03:39:33;;;;;;;24.55;20.20;;;19.50;92.10;;;;;;5035873;28;20056;-82
2021/06/17 03:42:01;;;;;;;24.23;20.48;;;19.60;92.10;;;;;;5055570;28;20407;-82
2021/06/17 03:44:29;;;;;;;22.25;19.95;;;19.60;92.00;;;;;;5036808;28;20048;-82
2021/06/17 03:46:59;;;;;;;22.52;20.10;;;19.60;92.30;;;;;;5067345;28;20044;-82
2021/06/17 03:49:27;;;;;;;23.88;19.90;;;19.60;92.00;;;;;;5067037;28;20147;-81
2021/06/17 03:51:56;;;;;;;20.95;18.70;;;19.60;91.90;;;;;;5019927;28;20045;-82
2021/06/17 03:54:24;;;;;;;21.88;19.05;;;19.70;91.90;;;;;;5053332;28;20033;-82
2021/06/17 03:56:53;;;;;;;21.10;17.42;;;19.70;92.00;;;;;;5047496;28;20090;-82
2021/06/17 03:59:24;;;;;;;19.33;17.33;;;19.70;92.00;;;;;;5036625;28;20117;-82
2021/06/17 04:01:51;;;;;;;20.45;17.35;;;19.70;91.90;;;;;;5036102;28;20119;-82
2021/06/17 04:04:17;;;;;;;19.70;16.70;;;19.80;91.80;;;;;;5040414;28;20040;-81
2021/06/17 04:06:49;;;;;;;19.88;17.80;;;19.80;91.80;;;;;;5021323;28;20040;-82
2021/06/17 04:09:26;;;;;;;17.55;15.23;;;19.90;91.80;;;;;;5036430;28;20039;-81
2021/06/17 04:11:55;;;;;;;20.75;18.48;;;19.90;91.70;;;;;;5069948;28;20048;-82
2021/06/17 04:14:22;;;;;;;22.15;17.02;;;19.90;92.00;;;;;;5040797;28;20064;-82
2021/06/17 04:16:51;;;;;;;17.67;15.63;;;20.00;91.70;;;;;;5020692;28;20087;-82
2021/06/17 04:19:21;;;;;;;19.65;16.83;;;20.00;91.60;;;;;;5067798;28;20040;-82
2021/06/17 04:21:50;;;;;;;18.80;15.55;;;20.10;91.60;;;;;;5036957;28;20053;-81
2021/06/17 04:24:19;;;;;;;18.00;15.88;;;20.10;91.60;;;;;;5035683;28;20040;-81
2021/06/17 04:26:46;;;;;;;17.67;15.70;;;20.10;91.60;;;;;;5038902;28;20033;-82
2021/06/17 04:29:17;;;;;;;21.45;16.67;;;20.20;91.50;;;;;;5057002;28;20061;-82
2021/06/17 04:31:49;;;;;;;18.67;15.82;;;20.30;91.50;;;;;;5035260;28;20037;-82
2021/06/17 04:34:16;;;;;;;18.60;16.67;;;20.30;91.40;;;;;;5036436;28;20033;-81
2021/06/17 04:36:43;;;;;;;19.73;16.55;;;20.30;91.40;;;;;;5040198;28;20048;-82
2021/06/17 04:39:10;;;;;;;21.60;16.33;;;20.40;91.30;;;;;;5043084;28;20364;-81
2021/06/17 04:41:41;;;;;;;16.35;14.70;;;20.40;91.30;;;;;;5020397;28;20037;-82
2021/06/17 04:44:07;;;;;;;17.25;15.40;;;20.50;91.10;;;;;;5035465;28;20046;-82
2021/06/17 04:46:35;;;;;;;16.52;14.65;;;20.50;91.10;;;;;;5020233;28;20072;-81
2021/06/17 04:49:03;;;;;;;17.67;15.88;;;20.60;91.30;;;;;;5040204;28;20041;-82
2021/06/17 04:51:32;;;;;;;22.80;17.35;;;20.60;90.80;;;;;;5035591;28;20041;-82
2021/06/17 04:53:58;;;;;;;23.20;18.38;;;20.70;90.80;;;;;;5064762;28;20606;-82
2021/06/17 04:56:24;;;;;;;18.65;16.75;;;20.70;90.70;;;;;;5033198;28;20249;-82
2021/06/17 04:58:50;;;;;;;18.83;16.17;;;20.80;90.60;;;;;;5071296;28;20068;-81
2021/06/17 05:01:19;;;;;;;18.17;16.10;;;20.90;90.50;;;;;;4992877;28;20044;-81
2021/06/17 05:03:46;;;;;;;18.17;16.38;;;20.90;90.50;;;;;;5034389;28;20041;-81
2021/06/17 05:06:15;;;;;;;19.20;15.77;;;21.00;90.40;;;;;;5018118;28;20828;-81
2021/06/17 05:11:26;;;;;;;21.65;16.27;;;21.10;90.40;;;;;;5034245;28;20037;-82
2021/06/17 05:13:52;;;;;;;17.45;15.10;;;21.10;90.20;;;;;;5020694;28;20091;-82
2021/06/17 05:16:18;;;;;;;16.15;14.45;;;21.20;90.20;;;;;;5023136;28;20040;-82
2021/06/17 05:18:44;;;;;;;17.83;15.10;;;21.20;90.10;;;;;;5031189;28;20048;-81
2021/06/17 05:21:10;;;;;;;20.85;15.45;;;21.30;90.00;;;;;;5048732;28;20276;-82
2021/06/17 05:23:40;;;;;;;16.35;14.13;;;21.40;89.70;;;;;;5046137;28;20120;-81
2021/06/17 05:26:07;;;;;;;19.83;15.90;;;21.50;89.70;;;;;;5034461;28;20123;-82
2021/06/17 05:28:34;;;;;;;19.52;15.90;;;21.50;89.20;;;;;;5020815;28;20034;-78
2021/06/17 05:31:02;;;;;;;19.20;15.15;;;21.60;88.80;;;;;;5027806;28;20076;-78
2021/06/17 05:33:32;;;;;;;17.30;15.50;;;21.60;88.60;;;;;;5034390;28;20037;-79
2021/06/17 05:36:00;;;;;;;19.70;15.75;;;21.60;88.50;;;;;;5068682;28;20298;-79
2021/06/17 05:38:30;;;;;;;19.63;15.52;;;21.70;88.40;;;;;;5068465;28;20103;-79
2021/06/17 05:40:56;;;;;;;15.50;13.95;;;21.80;88.20;;;;;;5049242;28;20245;-78
2021/06/17 05:43:22;;;;;;;17.40;15.18;;;21.80;87.90;;;;;;5049511;28;20044;-79
2021/06/17 05:45:49;;;;;;;18.27;13.18;;;21.90;87.70;;;;;;5037180;28;20037;-78
2021/06/17 05:48:15;;;;;;;17.52;13.57;;;22.00;87.50;;;;;;5035787;28;20056;-78
2021/06/17 05:50:41;;;;;;;16.67;13.32;;;22.10;87.20;;;;;;5034742;28;20033;-78
2021/06/17 05:53:07;;;;;;;17.02;13.30;;;22.20;87.10;;;;;;5031394;28;20044;-78
2021/06/17 05:55:33;;;;;;;14.88;12.82;;;22.20;86.80;;;;;;5063674;28;20553;-78
2021/06/17 05:57:59;;;;;;;18.45;14.13;;;22.40;86.70;;;;;;5031058;28;20410;-79
2021/06/17 06:00:25;;;;;;;15.43;13.70;;;22.40;86.50;;;;;;5034083;28;20030;-78
2021/06/17 06:02:51;;;;;;;15.07;12.80;;;22.50;86.30;;;;;;5029679;28;20037;-78
2021/06/17 06:05:17;;;;;;;13.68;12.25;;;22.50;86.10;;;;;;5066475;28;20562;-79
2021/06/17 06:07:43;;;;;;;15.52;12.27;;;22.60;85.90;;;;;;5040096;28;20033;-79
2021/06/17 06:10:13;;;;;;;13.73;12.25;;;22.70;85.70;;;;;;5049771;28;20459;-82
2021/06/17 06:12:39;;;;;;;16.08;12.07;;;22.80;86.10;;;;;;5039730;28;20052;-82
2021/06/17 06:15:06;;;;;;;13.80;12.13;;;22.90;85.10;;;;;;5047438;28;20060;-82
2021/06/17 06:17:32;;;;;;;16.30;12.27;;;23.00;84.40;;;;;;5058894;28;20082;-83
2021/06/17 06:19:59;;;;;;;19.92;12.02;;;23.10;83.90;;;;;;5026215;28;20107;-82
2021/06/17 06:22:26;;;;;;;17.88;12.10;;;23.20;83.50;;;;;;5027336;28;20062;-83
2021/06/17 06:24:52;;;;;;;15.40;11.90;;;23.40;83.30;;;;;;5037943;28;20049;-83
2021/06/17 06:27:18;;;;;;;14.02;11.18;;;23.50;83.10;;;;;;5038270;28;20052;-82
2021/06/17 06:29:44;;;;;;;14.68;11.30;;;23.60;83.00;;;;;;5065207;28;20041;-81
2021/06/17 06:32:09;;;;;;;17.02;11.18;;;23.80;82.60;;;;;;5038296;28;20041;-82
2021/06/17 06:34:36;;;;;;;14.82;10.77;;;23.90;82.40;;;;;;5050282;28;20124;-81
2021/06/17 06:37:02;;;;;;;16.08;10.65;;;24.00;81.90;;;;;;5036830;28;20074;-82
2021/06/17 06:39:28;;;;;;;14.00;11.07;;;24.10;81.00;;;;;;5030570;28;20128;-81
2021/06/17 06:41:54;;;;;;;11.68;10.48;;;24.10;80.20;;;;;;5048351;28;20111;-80
2021/06/17 06:44:22;;;;;;;14.18;10.70;;;24.20;79.50;;;;;;5055041;28;20742;-82
2021/06/17 06:46:50;;;;;;;14.63;10.85;;;24.30;78.60;;;;;;5034193;28;20048;-83
2021/06/17 06:49:16;;;;;;;11.75;10.20;;;24.40;79.00;;;;;;5019434;28;20134;-82
2021/06/17 06:51:42;;;;;;;13.20;10.25;;;24.40;78.50;;;;;;5036037;28;20488;-82
2021/06/17 06:54:09;;;;;;;12.48;10.93;;;24.60;78.70;;;;;;5028499;28;20037;-81
2021/06/17 06:56:36;;;;;;;17.00;11.30;;;24.70;78.30;;;;;;5030002;28;20037;-82
2021/06/17 06:59:03;;;;;;;12.02;10.18;;;24.80;77.90;;;;;;5034517;28;20039;-81
2021/06/17 07:01:29;;;;;;;12.18;9.55;;;24.90;77.80;;;;;;5033517;28;20033;-81
2021/06/17 07:03:55;;;;;;;12.77;10.07;;;25.00;77.40;;;;;;5019549;28;20544;-82
2021/06/17 07:06:21;;;;;;;14.30;10.85;;;25.10;76.90;;;;;;5049405;28;20049;-80
2021/06/17 07:08:46;;;;;;;15.98;10.25;;;25.20;76.60;;;;;;5033493;28;20033;-82
2021/06/17 07:11:12;;;;;;;12.02;10.05;;;25.30;76.30;;;;;;5036170;28;20106;-82
2021/06/17 07:13:38;;;;;;;15.40;9.27;;;25.30;75.30;;;;;;5015481;28;20044;-81
2021/06/17 07:16:05;;;;;;;13.73;9.00;;;25.40;74.70;;;;;;5059188;28;20044;-82
2021/06/17 07:18:32;;;;;;;15.93;9.80;;;25.50;74.20;;;;;;5023002;28;20254;-81
2021/06/17 07:20:57;;;;;;;10.88;9.18;;;25.70;73.50;;;;;;5051343;28;20045;-80
2021/06/17 07:23:27;;;;;;;10.77;9.32;;;25.70;73.50;;;;;;5088425;28;20041;-80
2021/06/17 07:25:53;;;;;;;12.18;9.50;;;25.80;72.60;;;;;;5039935;28;20041;-82
2021/06/17 07:28:18;;;;;;;11.95;9.55;;;25.90;72.40;;;;;;5023013;28;20036;-82
2021/06/17 07:30:44;;;;;;;11.38;9.25;;;26.10;72.80;;;;;;5007891;28;20041;-80
2021/06/17 07:33:11;;;;;;;12.48;9.27;;;26.20;73.40;;;;;;5044869;28;20041;-81
2021/06/17 07:35:36;;;;;;;17.42;9.85;;;26.20;71.60;;;;;;5055774;28;20480;-81
2021/06/17 07:38:02;;;;;;;11.82;9.40;;;26.20;70.00;;;;;;5034973;28;20107;-80
2021/06/17 07:40:29;;;;;;;11.98;9.05;;;26.20;69.60;;;;;;5036601;28;20037;-82
2021/06/17 07:42:55;;;;;;;15.52;9.55;;;26.30;69.70;;;;;;5055883;28;20431;-83
2021/06/17 07:45:23;;;;;;;10.73;8.70;;;26.40;70.10;;;;;;5037291;28;20051;-83
2021/06/17 07:47:49;;;;;;;15.82;9.63;;;26.40;70.80;;;;;;5022032;28;20033;-83
2021/06/17 07:50:15;;;;;;;11.90;9.75;;;26.50;71.30;;;;;;5052531;28;20055;-82
2021/06/17 07:52:42;;;;;;;10.73;9.40;;;26.60;69.90;;;;;;5023616;28;20047;-82
2021/06/17 07:55:08;;;;;;;13.65;8.90;;;26.70;69.00;;;;;;5034485;28;20064;-83
2021/06/17 07:57:34;;;;;;;10.70;8.70;;;26.80;69.00;;;;;;5054259;28;20500;-81
2021/06/17 08:00:00;;;;;;;14.57;9.57;;;26.80;69.20;;;;;;5027045;28;20033;-82
2021/06/17 08:02:26;;;;;;;13.45;9.40;;;26.80;68.80;;;;;;5035952;28;20502;-83
2021/06/17 08:04:53;;;;;;;10.02;8.73;;;26.80;68.90;;;;;;5033813;28;20041;-81
2021/06/17 08:07:19;;;;;;;11.95;8.35;;;26.80;68.80;;;;;;5053158;28;20489;-83
2021/06/17 08:09:44;;;;;;;10.32;9.23;;;26.90;68.80;;;;;;5067222;28;20037;-81
2021/06/17 08:12:10;;;;;;;16.05;9.13;;;27.00;68.20;;;;;;5007747;28;20049;-81
2021/06/17 08:14:36;;;;;;;10.30;9.27;;;27.10;68.10;;;;;;5016916;28;20032;-82
2021/06/17 08:17:02;;;;;;;11.05;9.68;;;27.10;67.60;;;;;;5066052;28;20112;-83
2021/06/17 08:19:32;;;;;;;11.90;9.63;;;27.20;66.80;;;;;;5055463;28;20115;-83
2021/06/17 08:22:02;;;;;;;12.95;9.32;;;27.30;66.40;;;;;;5035291;28;20133;-82
2021/06/17 08:24:28;;;;;;;13.82;10.02;;;27.30;67.20;;;;;;5068457;28;20029;-82
2021/06/17 08:26:54;;;;;;;14.05;8.80;;;27.40;66.40;;;;;;5052233;28;20073;-82
2021/06/17 08:29:20;;;;;;;9.48;8.55;;;27.40;66.80;;;;;;5024899;28;20041;-83
2021/06/17 08:31:46;;;;;;;10.07;8.98;;;27.40;66.50;;;;;;5036646;28;20045;-84
2021/06/17 08:34:12;;;;;;;10.45;8.32;;;27.50;67.10;;;;;;5051136;28;20132;-84
2021/06/17 08:36:38;;;;;;;10.98;8.98;;;27.50;67.10;;;;;;5049861;28;20025;-82
2021/06/17 08:39:04;;;;;;;13.23;8.20;;;27.50;67.00;;;;;;5039471;28;20291;-83
2021/06/17 08:41:32;;;;;;;14.48;8.15;;;27.50;66.00;;;;;;5017173;28;20068;-83
2021/06/17 08:43:58;;;;;;;11.35;7.78;;;27.60;65.70;;;;;;5067879;28;20791;-83
2021/06/17 08:46:24;;;;;;;10.43;7.03;;;27.70;65.40;;;;;;5049750;28;20033;-84
2021/06/17 08:48:50;;;;;;;11.98;7.45;;;27.70;66.20;;;;;;5073172;28;20037;-81
2021/06/17 08:51:20;;;;;;;10.05;7.88;;;27.70;66.00;;;;;;5022134;28;20044;-84
2021/06/17 08:53:49;;;;;;;8.65;7.15;;;27.80;65.00;;;;;;5049609;28;20060;-83
2021/06/17 08:56:15;;;;;;;12.25;7.65;;;27.80;64.10;;;;;;5035382;28;20033;-84
2021/06/17 08:58:40;;;;;;;11.93;7.32;;;27.90;64.00;;;;;;5066861;28;20109;-84
2021/06/17 09:01:11;;;;;;;8.48;7.35;;;28.00;64.20;;;;;;5052343;28;20481;-84
2021/06/17 09:03:42;;;;;;;11.82;7.93;;;28.10;64.80;;;;;;5039003;28;20041;-81
2021/06/17 09:06:08;;;;;;;9.20;7.10;;;28.10;63.90;;;;;;5019222;28;20143;-85
2021/06/17 09:08:35;;;;;;;11.70;6.88;;;28.10;64.60;;;;;;5071229;28;20429;-85
2021/06/17 09:11:16;;;;;;;13.10;7.22;;;28.10;64.70;;;;;;5075769;28;20038;-82
2021/06/17 09:13:42;;;;;;;9.10;6.83;;;28.10;63.40;;;;;;5045339;28;20148;-83
2021/06/17 09:16:08;;;;;;;14.50;6.50;;;28.10;64.00;;;;;;5053468;28;20124;-83
2021/06/17 09:18:35;;;;;;;20.85;6.32;;;28.20;64.30;;;;;;5025091;28;20051;-82
2021/06/17 09:21:09;;;;;;;8.60;6.03;;;28.10;63.00;;;;;;5045234;28;20037;-83
2021/06/17 09:23:38;;;;;;;7.63;6.15;;;28.20;61.80;;;;;;5041572;28;20036;-83
2021/06/17 09:26:19;;;;;;;10.10;6.32;;;28.30;61.80;;;;;;5045888;28;20037;-84
2021/06/17 09:29:07;;;;;;;8.32;5.95;;;28.30;63.30;;;;;;5072727;28;20108;-83
2021/06/17 09:31:36;;;;;;;9.18;6.28;;;28.40;63.90;;;;;;5039164;28;21065;-84
2021/06/17 09:34:05;;;;;;;10.30;5.70;;;28.50;62.40;;;;;;5067446;28;20038;-83
2021/06/17 09:36:33;;;;;;;11.32;6.15;;;28.60;61.00;;;;;;5000234;28;20400;-82
2021/06/17 09:39:10;;;;;;;9.57;5.70;;;28.70;61.50;;;;;;5038456;28;20056;-83
2021/06/17 09:41:45;;;;;;;8.40;5.22;;;28.70;61.10;;;;;;5047288;28;20037;-82
2021/06/17 09:44:31;;;;;;;11.13;5.25;;;28.70;60.50;;;;;;5050716;28;20080;-82
2021/06/17 09:47:10;;;;;;;8.07;5.22;;;28.80;60.40;;;;;;5067159;28;20033;-83
2021/06/17 09:49:41;;;;;;;7.43;5.20;;;28.80;59.80;;;;;;5020313;28;20037;-83
2021/06/17 09:52:08;;;;;;;7.37;5.40;;;28.90;59.60;;;;;;5032757;28;20037;-82
2021/06/17 09:54:38;;;;;;;5.80;5.00;;;28.90;59.80;;;;;;5050880;28;21248;-82
2021/06/17 09:57:07;;;;;;;8.90;5.25;;;29.00;57.40;;;;;;5025088;28;20665;-83
2021/06/17 09:59:36;;;;;;;8.10;5.05;;;29.00;56.20;;;;;;5031806;28;20071;-83
2021/06/17 10:02:07;;;;;;;6.05;4.60;;;29.20;56.50;;;;;;5038854;28;20052;-82
2021/06/17 10:04:34;;;;;;;5.80;4.53;;;29.20;57.10;;;;;;5038122;28;20033;-81
2021/06/17 10:07:00;;;;;;;6.80;5.10;;;29.30;57.00;;;;;;5035399;28;20538;-83
2021/06/17 10:09:27;;;;;;;10.18;4.80;;;29.30;56.60;;;;;;5035012;28;20053;-82
2021/06/17 10:11:53;;;;;;;7.20;5.45;;;29.40;57.10;;;;;;5069749;28;20088;-83
2021/06/17 10:14:19;;;;;;;7.38;4.60;;;29.50;56.20;;;;;;5037516;28;20123;-83
2021/06/17 10:16:46;;;;;;;6.43;4.55;;;29.70;56.80;;;;;;5056489;28;20098;-82
2021/06/17 10:19:15;;;;;;;10.60;4.32;;;29.70;52.30;;;;;;5017367;28;20547;-82
2021/06/17 10:21:42;;;;;;;8.40;4.60;;;29.90;51.20;;;;;;5034578;28;20112;-83
2021/06/17 10:24:26;;;;;;;8.00;5.00;;;29.90;52.20;;;;;;5020566;28;20554;-83
2021/06/17 10:26:55;;;;;;;5.40;4.90;;;30.00;53.00;;;;;;5065033;28;20703;-82
2021/06/17 10:29:42;;;;;;;6.13;5.10;;;30.10;52.60;;;;;;5050158;28;20603;-80
2021/06/17 10:32:16;;;;;;;8.63;5.03;;;30.10;53.40;;;;;;5068019;28;20406;-83
2021/06/17 10:34:52;;;;;;;8.90;5.55;;;30.20;52.20;;;;;;5039712;28;20033;-82
2021/06/17 10:37:24;;;;;;;6.35;5.75;;;30.20;52.50;;;;;;5068579;28;20034;-81
2021/06/17 10:39:59;;;;;;;6.57;5.50;;;30.40;52.40;;;;;;5037499;28;20037;-81
2021/06/17 10:42:30;;;;;;;9.57;5.13;;;30.40;51.90;;;;;;5065789;28;20262;-82
2021/06/17 10:45:02;;;;;;;12.88;5.40;;;30.50;51.50;;;;;;5038164;28;20051;-84
2021/06/17 10:47:50;;;;;;;9.85;5.60;;;30.50;51.30;;;;;;5037824;28;20060;-82
2021/06/17 10:50:42;;;;;;;12.20;5.22;;;30.50;52.40;;;;;;5037238;28;20068;-82
2021/06/17 10:53:19;;;;;;;11.10;5.88;;;30.60;51.40;;;;;;5050442;28;20428;-81
2021/06/17 10:55:57;;;;;;;9.63;5.43;;;30.70;50.80;;;;;;5034774;28;22667;-81
2021/06/17 10:58:41;;;;;;;9.35;5.15;;;30.70;50.70;;;;;;5021119;28;20037;-81
2021/06/17 11:01:34;;;;;;;7.07;5.78;;;30.70;50.60;;;;;;5033886;28;20033;-82
2021/06/17 11:04:02;;;;;;;;;;;30.70;50.10;;;;;;5039032;28;20095;-81
2021/06/17 11:07:03;;;;;;;8.60;5.15;;;30.70;50.80;;;;;;5031504;28;19952;-82
2021/06/17 11:09:39;;;;;;;9.02;5.03;;;30.70;50.60;;;;;;5020868;28;20132;-83
2021/06/17 11:12:13;;;;;;;8.27;4.07;;;30.80;49.30;;;;;;5036598;28;20056;-83
2021/06/17 11:14:50;;;;;;;5.55;4.40;;;30.90;50.20;;;;;;5033615;28;20231;-82
2021/06/17 11:17:34;;;;;;;10.85;4.88;;;30.90;48.80;;;;;;5067090;28;20124;-82
2021/06/17 11:20:18;;;;;;;9.60;4.60;;;31.00;48.70;;;;;;5050011;28;20380;-81
2021/06/17 11:22:58;;;;;;;5.93;4.95;;;31.00;47.70;;;;;;5032637;28;20038;-79
2021/06/17 11:25:26;;;;;;;8.07;4.65;;;31.00;48.10;;;;;;5034026;28;20041;-79
2021/06/17 11:28:01;;;;;;;6.90;4.28;;;31.00;47.50;;;;;;5031757;28;20033;-79
2021/06/17 11:30:39;;;;;;;8.40;3.72;;;31.00;46.40;;;;;;5037866;28;20033;-80
2021/06/17 11:33:17;;;;;;;9.75;4.55;;;31.10;47.30;;;;;;5040250;28;20101;-81
2021/06/17 11:36:06;;;;;;;6.70;4.10;;;31.10;48.00;;;;;;5039602;28;20090;-82
2021/06/17 11:38:34;;;;;;;7.75;4.10;;;31.20;46.80;;;;;;5049151;28;20033;-82
2021/06/17 11:41:31;;;;;;;6.13;4.25;;;31.30;46.20;;;;;;5049339;28;20578;-81
2021/06/17 11:44:04;;;;;;;5.65;4.05;;;31.30;47.10;;;;;;5020829;28;20358;-80
2021/06/17 11:46:40;;;;;;;5.22;3.92;;;31.30;46.10;;;;;;5031650;28;20029;-80
2021/06/17 11:49:09;;;;;;;5.57;3.60;;;31.40;46.80;;;;;;5025165;28;20037;-81
2021/06/17 11:51:55;;;;;;;5.05;3.88;;;31.50;45.90;;;;;;5077743;28;20297;-80
2021/06/17 11:54:25;;;;;;;5.38;3.72;;;31.50;47.10;;;;;;5051575;28;20049;-82
2021/06/17 11:56:54;;;;;;;6.03;3.70;;;31.50;45.10;;;;;;5053852;28;20059;-83
2021/06/17 11:59:22;;;;;;;5.35;3.42;;;31.50;43.70;;;;;;5087531;28;20037;-81
2021/06/17 12:02:20;;;;;;;5.05;3.40;;;31.50;43.70;;;;;;5034131;28;20060;-82
2021/06/17 12:07:27;;;;;;;3.65;3.20;;;31.50;44.60;;;;;;5042529;28;20037;-81
2021/06/17 12:09:55;;;;;;;5.75;3.28;;;31.60;45.10;;;;;;5025245;28;20061;-82
2021/06/17 12:12:25;;;;;;;8.15;3.85;;;31.70;46.00;;;;;;5079414;28;20067;-83
2021/06/17 12:14:55;;;;;;;5.85;3.47;;;31.70;45.80;;;;;;5065774;28;20435;-81
2021/06/17 12:17:36;;;;;;;7.30;3.90;;;31.70;46.00;;;;;;5065664;28;20033;-82
2021/06/17 12:20:12;;;;;;;6.82;4.00;;;31.70;45.20;;;;;;5081887;28;20083;-83
2021/06/17 12:22:40;;;;;;;10.27;4.00;;;31.70;45.60;;;;;;5045796;28;20554;-79
2021/06/17 12:25:07;;;;;;;7.45;3.80;;;31.80;44.40;;;;;;5082429;28;20526;-83
2021/06/17 12:27:33;;;;;;;5.72;4.00;;;31.90;43.90;;;;;;5046005;28;20033;-80
2021/06/17 12:30:22;;;;;;;6.63;4.30;;;31.90;43.60;;;;;;5077876;28;20037;-82
2021/06/17 12:32:48;;;;;;;10.68;4.45;;;32.10;44.90;;;;;;5047048;28;20048;-82
2021/06/17 12:35:14;;;;;;;5.53;3.80;;;32.10;45.10;;;;;;5058253;28;20040;-84
2021/06/17 12:37:55;;;;;;;4.20;3.50;;;32.20;44.90;;;;;;5061163;28;20053;-83
2021/06/17 12:40:38;;;;;;;6.13;3.92;;;32.20;44.50;;;;;;5075337;28;20044;-80
2021/06/17 12:43:05;;;;;;;7.22;4.60;;;32.20;44.20;;;;;;5080764;28;20037;-81
2021/06/17 12:45:32;;;;;;;4.65;4.10;;;32.20;43.40;;;;;;5056795;28;20059;-80
2021/06/17 12:48:07;;;;;;;9.85;4.18;;;32.20;44.00;;;;;;5032409;28;20063;-82
2021/06/17 12:53:17;;;;;;;6.10;4.00;;;32.40;45.40;;;;;;5042915;28;20450;-83